Time;durP1;ratioP1;P1;durP2;ratioP2;P2;SDS_P1;SDS_P2;PMS_P1;PMS_P2;Temp;Humidity;BMP_temperature;BMP_pressure;BME280_temperature;BME280_humidity;BME280_pressure;Samples;Min_cycle;Max_cycle;Signal;HPM_P1;HPM_P2
2023/09/06 00:10:19;;;;;;;8;4.3;;;;;;;11.11;90.99;;;;;
2023/09/06 00:21:19;;;;;;;6.8;3.8;;;;;;;11.06;90.33;;;;;
2023/09/06 00:32:19;;;;;;;6.8;3.8;;;;;;;11.02;90.23;;;;;
2023/09/06 00:43:19;;;;;;;6.8;3.8;;;;;;;10.94;90.1;;;;;
2023/09/06 00:53:19;;;;;;;7.3;3.6;;;;;;;10.86;89.96;;;;;
2023/09/06 01:04:19;;;;;;;7.3;3.6;;;;;;;10.77;89.39;;;;;
2023/09/06 01:15:19;;;;;;;7.5;4;;;;;;;10.58;90.82;;;;;
2023/09/06 01:25:19;;;;;;;7.5;4;;;;;;;10.51;90.6;;;;;
2023/09/06 01:36:19;;;;;;;7.5;4;;;;;;;10.46;90.82;;;;;
2023/09/06 01:46:19;;;;;;;7.6;3.9;;;;;;;10.41;90.67;;;;;
2023/09/06 01:57:19;;;;;;;7.6;3.9;;;;;;;10.35;90.34;;;;;
2023/09/06 02:08:19;;;;;;;7.6;3.9;;;;;;;10.37;91.06;;;;;
2023/09/06 02:18:20;;;;;;;9;4.6;;;;;;;10.37;90.9;;;;;
2023/09/06 02:29:19;;;;;;;9;4.6;;;;;;;10.26;90.5;;;;;
2023/09/06 02:39:19;;;;;;;9;4.6;;;;;;;10.19;90.5;;;;;
2023/09/06 02:49:19;;;;;;;8.7;4.2;;;;;;;10.08;90.36;;;;;
2023/09/06 03:00:24;;;;;;;8.7;4.2;;;;;;;10.04;91.2;;;;;
2023/09/06 03:11:19;;;;;;;8.7;4.2;;;;;;;9.96;90.75;;;;;
2023/09/06 03:21:19;;;;;;;7.3;3.8;;;;;;;9.84;90.49;;;;;
2023/09/06 03:32:20;;;;;;;7.3;3.8;;;;;;;9.71;90.35;;;;;
2023/09/06 03:42:20;;;;;;;7.3;3.8;;;;;;;9.57;90.18;;;;;
2023/09/06 03:53:19;;;;;;;8.5;3.5;;;;;;;9.48;90.56;;;;;
2023/09/06 04:04:19;;;;;;;8.5;3.5;;;;;;;9.44;90.73;;;;;
2023/09/06 04:15:21;;;;;;;6.8;3.6;;;;;;;9.35;92.94;;;;;
2023/09/06 04:25:22;;;;;;;6.8;3.6;;;;;;;9.51;92.53;;;;;
2023/09/06 04:35:22;;;;;;;6.8;3.6;;;;;;;9.72;92.29;;;;;
2023/09/06 04:46:19;;;;;;;7.1;3.7;;;;;;;9.8;92.21;;;;;
2023/09/06 04:57:19;;;;;;;7.1;3.7;;;;;;;10.2;92.34;;;;;
2023/09/06 05:07:19;;;;;;;7.1;3.7;;;;;;;10.49;92.66;;;;;
2023/09/06 05:18:19;;;;;;;8.1;3.9;;;;;;;11.09;93.29;;;;;
2023/09/06 05:29:19;;;;;;;8.1;3.9;;;;;;;11.71;92.9;;;;;
2023/09/06 05:40:22;;;;;;;8.1;3.9;;;;;;;12.17;92.76;;;;;
2023/09/06 05:51:19;;;;;;;12.1;7;;;;;;;12.74;92.54;;;;;
2023/09/06 06:01:19;;;;;;;12.1;7;;;;;;;13.33;92.22;;;;;
2023/09/06 06:11:19;;;;;;;12.1;7;;;;;;;13.92;90.76;;;;;
2023/09/06 06:22:19;;;;;;;17;12.5;;;;;;;14.45;89.3;;;;;
2023/09/06 06:32:19;;;;;;;17;12.5;;;;;;;14.83;87.36;;;;;
2023/09/06 06:43:19;;;;;;;17;14.2;;;;;;;15.29;85.87;;;;;
2023/09/06 06:53:19;;;;;;;17;14.2;;;;;;;15.72;84.7;;;;;
2023/09/06 07:04:19;;;;;;;17;14.2;;;;;;;16;83.28;;;;;
2023/09/06 07:14:20;;;;;;;14.6;10.9;;;;;;;16.48;81.3;;;;;
2023/09/06 07:24:19;;;;;;;14.6;10.9;;;;;;;16.75;80.86;;;;;
2023/09/06 07:35:19;;;;;;;;;;;;;;;;;;;;;
2023/09/06 07:45:19;;;;;;;;;;;;;;;;;;;;;
2023/09/06 07:56:20;;;;;;;;;;;;;;;;;;;;;
2023/09/06 08:06:19;;;;;;;;;;;;;;;;;;;;;
2023/09/06 08:16:19;;;;;;;;;;;;;;;;;;;;;
2023/09/06 08:26:19;;;;;;;;;;;;;;;;;;;;;
2023/09/06 08:37:19;;;;;;;;;;;;;;;;;;;;;
2023/09/06 08:48:19;;;;;;;;;;;;;;;;;;;;;
2023/09/06 08:58:19;;;;;;;;;;;;;;;;;;;;;
2023/09/06 09:09:20;;;;;;;9.1;5.5;;;;;;;21.03;68.23;;;;;
2023/09/06 09:19:19;;;;;;;9.1;5.5;;;;;;;21.31;65.95;;;;;
2023/09/06 09:29:19;;;;;;;9.1;5.5;;;;;;;21.62;64.17;;;;;
2023/09/06 09:40:20;;;;;;;7.4;4.8;;;;;;;21.99;64.98;;;;;
2023/09/06 09:51:20;;;;;;;7.4;4.8;;;;;;;21.95;61.7;;;;;
2023/09/06 10:02:19;;;;;;;7.4;4.8;;;;;;;22.4;58.15;;;;;
2023/09/06 10:13:19;;;;;;;7.3;4.3;;;;;;;22.79;59.53;;;;;
2023/09/06 10:24:19;;;;;;;7.3;4.3;;;;;;;22.8;55.51;;;;;
2023/09/06 10:34:20;;;;;;;10;3.9;;;;;;;22.95;55.39;;;;;
2023/09/06 10:45:19;;;;;;;10;3.9;;;;;;;22.92;54.29;;;;;
2023/09/06 10:56:19;;;;;;;10;3.9;;;;;;;22.94;56.19;;;;;
2023/09/06 11:06:19;;;;;;;5.5;3.5;;;;;;;23.16;55.63;;;;;
2023/09/06 11:17:19;;;;;;;5.5;3.5;;;;;;;23.86;55;;;;;
2023/09/06 11:27:19;;;;;;;5.5;3.5;;;;;;;23.88;54.71;;;;;
2023/09/06 11:37:19;;;;;;;7.6;4.2;;;;;;;24.12;53.53;;;;;
2023/09/06 11:48:25;;;;;;;7.6;4.2;;;;;;;24.08;52.98;;;;;
2023/09/06 11:58:21;;;;;;;7.6;4.2;;;;;;;23.98;52.26;;;;;
2023/09/06 12:08:21;;;;;;;7.8;4.1;;;;;;;23.81;52.59;;;;;
2023/09/06 12:19:19;;;;;;;7.8;4.1;;;;;;;24.17;50.06;;;;;
2023/09/06 12:30:19;;;;;;;7.8;4.1;;;;;;;24.15;51.31;;;;;
2023/09/06 12:40:27;;;;;;;7.1;4.3;;;;;;;24.53;50.66;;;;;
2023/09/06 12:50:20;;;;;;;7.1;4.3;;;;;;;24.35;50.07;;;;;
2023/09/06 13:00:20;;;;;;;7.1;4.3;;;;;;;24.51;49.55;;;;;
2023/09/06 13:11:19;;;;;;;8.4;4.1;;;;;;;24.59;46.44;;;;;
2023/09/06 13:21:20;;;;;;;8.4;4.1;;;;;;;24.58;48.03;;;;;
2023/09/06 13:31:20;;;;;;;8.4;4.1;;;;;;;24.77;49.34;;;;;
2023/09/06 13:42:20;;;;;;;7.8;4.2;;;;;;;24.67;47.14;;;;;
2023/09/06 13:53:19;;;;;;;7.8;4.2;;;;;;;25.14;45.86;;;;;
2023/09/06 14:04:19;;;;;;;8.1;3.9;;;;;;;24.76;46.76;;;;;
2023/09/06 14:14:19;;;;;;;8.1;3.9;;;;;;;25.35;45.48;;;;;
2023/09/06 14:24:19;;;;;;;8.1;3.9;;;;;;;25.62;43.48;;;;;
2023/09/06 14:34:19;;;;;;;5.8;3.7;;;;;;;25.56;42.84;;;;;
2023/09/06 14:44:19;;;;;;;5.8;3.7;;;;;;;25.81;42.24;;;;;
2023/09/06 14:55:19;;;;;;;5.8;3.7;;;;;;;25.83;43.48;;;;;
2023/09/06 15:06:20;;;;;;;7.1;4;;;;;;;26.48;42.23;;;;;
2023/09/06 15:16:20;;;;;;;7.1;4;;;;;;;28.71;38.82;;;;;
2023/09/06 15:27:20;;;;;;;7.1;4;;;;;;;30.55;33.86;;;;;
2023/09/06 15:38:19;;;;;;;7.3;3.3;;;;;;;31.15;33.78;;;;;
2023/09/06 15:48:20;;;;;;;;;;;;;;;;;;;;;
2023/09/06 15:58:20;;;;;;;;;;;;;;;;;;;;;
2023/09/06 16:09:20;;;;;;;5.6;3.1;;;;;;;32.25;31.57;;;;;
2023/09/06 16:20:20;;;;;;;5.6;3.1;;;;;;;31.57;33.89;;;;;
2023/09/06 16:31:19;;;;;;;5.6;3.1;;;;;;;28.14;39.79;;;;;
2023/09/06 16:42:21;;;;;;;5.9;3.5;;;;;;;26.3;44.03;;;;;
2023/09/06 16:52:19;;;;;;;5.9;3.5;;;;;;;24.3;49.2;;;;;
2023/09/06 17:03:20;;;;;;;5.9;3.5;;;;;;;23.03;53.14;;;;;
2023/09/06 17:13:20;;;;;;;7.9;4.6;;;;;;;22.09;56.31;;;;;
2023/09/06 17:23:20;;;;;;;7.9;4.6;;;;;;;21.17;59.16;;;;;
2023/09/06 17:33:23;;;;;;;7.9;4.6;;;;;;;20.37;62.97;;;;;
2023/09/06 17:44:20;;;;;;;8;4.8;;;;;;;19.61;64.16;;;;;
2023/09/06 17:55:20;;;;;;;8;4.8;;;;;;;18.92;68.56;;;;;
2023/09/06 18:05:20;;;;;;;8.6;5.3;;;;;;;18.4;70.89;;;;;
2023/09/06 18:16:20;;;;;;;8.6;5.3;;;;;;;17.94;72.14;;;;;
2023/09/06 18:26:21;;;;;;;8.6;5.3;;;;;;;17.54;73.05;;;;;
2023/09/06 18:37:20;;;;;;;28.1;21;;;;;;;17.21;73.16;;;;;
2023/09/06 18:47:20;;;;;;;28.1;21;;;;;;;17.03;73.17;;;;;
2023/09/06 18:58:21;;;;;;;28.1;21;;;;;;;16.71;73.17;;;;;
2023/09/06 19:08:20;;;;;;;31.8;25.8;;;;;;;16.56;73.3;;;;;
2023/09/06 19:19:20;;;;;;;31.8;25.8;;;;;;;16.17;76.36;;;;;
2023/09/06 19:29:20;;;;;;;31.8;25.8;;;;;;;15.77;75.99;;;;;
2023/09/06 19:39:20;;;;;;;13.2;9.1;;;;;;;15.5;76.88;;;;;
2023/09/06 19:49:20;;;;;;;13.2;9.1;;;;;;;15.63;76.66;;;;;
2023/09/06 20:00:20;;;;;;;13.2;9.1;;;;;;;15.49;76.53;;;;;
2023/09/06 20:11:20;;;;;;;14;8.3;;;;;;;15.11;76.9;;;;;
2023/09/06 20:21:20;;;;;;;14;8.3;;;;;;;14.72;77.5;;;;;
2023/09/06 20:32:20;;;;;;;14;8.3;;;;;;;14.36;78.7;;;;;
2023/09/06 20:42:20;;;;;;;12.1;7.8;;;;;;;14.1;81.32;;;;;
2023/09/06 20:53:20;;;;;;;12.1;7.8;;;;;;;13.99;83.92;;;;;
2023/09/06 21:04:20;;;;;;;10.9;6.5;;;;;;;13.88;83.07;;;;;
2023/09/06 21:14:20;;;;;;;10.9;6.5;;;;;;;13.66;82.34;;;;;
2023/09/06 21:24:20;;;;;;;10.9;6.5;;;;;;;13.45;83.87;;;;;
2023/09/06 21:35:20;;;;;;;12.7;5.8;;;;;;;13.29;83.45;;;;;
2023/09/06 21:46:20;;;;;;;12.7;5.8;;;;;;;13.08;82.92;;;;;
2023/09/06 21:56:20;;;;;;;12.7;5.8;;;;;;;12.92;83.81;;;;;
2023/09/06 22:07:20;;;;;;;12.8;7.1;;;;;;;12.83;86.61;;;;;
2023/09/06 22:17:20;;;;;;;12.8;7.1;;;;;;;12.66;87.5;;;;;
2023/09/06 22:27:20;;;;;;;12.8;7.1;;;;;;;12.71;87.48;;;;;
2023/09/06 22:37:20;;;;;;;11.5;6.1;;;;;;;12.64;86.48;;;;;
2023/09/06 22:48:20;;;;;;;11.5;6.1;;;;;;;12.53;86.53;;;;;
2023/09/06 22:58:20;;;;;;;11.5;6.1;;;;;;;12.39;86.59;;;;;
2023/09/06 23:09:20;;;;;;;9.3;5;;;;;;;12.31;86.88;;;;;
2023/09/06 23:20:26;;;;;;;9.3;5;;;;;;;12.2;87.35;;;;;
2023/09/06 23:31:20;;;;;;;9.3;5;;;;;;;12.15;87.39;;;;;
2023/09/06 23:42:20;;;;;;;8.5;5;;;;;;;12.03;87.31;;;;;
2023/09/06 23:52:22;;;;;;;8.5;5;;;;;;;11.98;89.46;;;;;
